Time;durP1;ratioP1;P1;durP2;ratioP2;P2;SDS_P1;SDS_P2;PMS_P1;PMS_P2;Temp;Humidity;BMP_temperature;BMP_pressure;BME280_temperature;BME280_humidity;BME280_pressure;Samples;Min_cycle;Max_cycle;Signal;HPM_P1;HPM_P2
2021/09/16 00:01:03;;;;;;;0.70;0.50;;;18.20;99.90;;;;;;5026178;28;20700;-75
2021/09/16 00:03:29;;;;;;;1.33;1.23;;;18.20;99.90;;;;;;5032317;28;20161;-75
2021/09/16 00:05:54;;;;;;;0.80;0.70;;;18.10;99.90;;;;;;5032238;28;20524;-76
2021/09/16 00:08:20;;;;;;;0.70;0.50;;;18.10;99.90;;;;;;5031806;28;20633;-75
2021/09/16 00:10:47;;;;;;;0.80;0.60;;;18.10;99.90;;;;;;5031250;28;20207;-75
2021/09/16 00:13:12;;;;;;;0.70;0.50;;;18.00;99.90;;;;;;5033975;28;20186;-75
2021/09/16 00:15:38;;;;;;;0.90;0.80;;;18.00;99.90;;;;;;5017892;28;20415;-75
2021/09/16 00:18:03;;;;;;;1.67;0.70;;;17.90;99.90;;;;;;5031838;28;20697;-75
2021/09/16 00:20:29;;;;;;;0.70;0.50;;;17.90;99.90;;;;;;5034489;28;20195;-76
2021/09/16 00:22:54;;;;;;;0.70;0.50;;;17.80;99.90;;;;;;5035000;28;20183;-75
2021/09/16 00:25:20;;;;;;;1.00;0.80;;;17.80;99.90;;;;;;5023734;28;20186;-75
2021/09/16 00:27:46;;;;;;;0.70;0.50;;;17.70;99.90;;;;;;5031072;28;20179;-74
2021/09/16 00:30:12;;;;;;;0.70;0.60;;;17.70;99.90;;;;;;5024861;28;20204;-75
2021/09/16 00:32:39;;;;;;;0.70;0.50;;;17.60;99.90;;;;;;5034982;28;20199;-75
2021/09/16 00:35:06;;;;;;;1.00;0.60;;;17.60;99.90;;;;;;5035605;28;20426;-75
2021/09/16 00:37:31;;;;;;;0.70;0.50;;;17.50;99.90;;;;;;5035376;28;20461;-75
2021/09/16 00:39:57;;;;;;;0.90;0.60;;;17.50;99.90;;;;;;5031450;28;20445;-75
2021/09/16 00:42:22;;;;;;;1.00;0.70;;;17.40;99.90;;;;;;5026750;28;20629;-75
2021/09/16 00:44:48;;;;;;;1.07;0.90;;;17.50;99.90;;;;;;5030183;28;20176;-75
2021/09/16 00:47:16;;;;;;;0.70;0.60;;;17.40;99.90;;;;;;5030003;28;20190;-76
2021/09/16 00:49:42;;;;;;;0.70;0.50;;;17.40;99.90;;;;;;5028333;28;20418;-75
2021/09/16 00:52:09;;;;;;;0.70;0.60;;;17.40;99.90;;;;;;5035086;28;20854;-75
2021/09/16 00:54:37;;;;;;;0.80;0.67;;;17.40;99.90;;;;;;5034059;28;20834;-76
2021/09/16 00:57:05;;;;;;;0.70;0.60;;;17.30;99.90;;;;;;5019562;28;20769;-75
2021/09/16 00:59:33;;;;;;;0.70;0.50;;;17.30;99.90;;;;;;5026706;28;20784;-75
2021/09/16 01:01:59;;;;;;;0.90;0.60;;;17.30;99.90;;;;;;5031765;28;20974;-76
2021/09/16 01:04:25;;;;;;;0.80;0.80;;;17.20;99.90;;;;;;5035336;28;20516;-74
2021/09/16 01:06:51;;;;;;;0.77;0.60;;;17.20;99.90;;;;;;5017116;28;20565;-76
2021/09/16 01:09:16;;;;;;;1.67;0.87;;;17.20;99.90;;;;;;5018963;28;20184;-75
2021/09/16 01:11:42;;;;;;;0.80;0.63;;;17.10;99.90;;;;;;5029591;28;20457;-75
2021/09/16 01:14:08;;;;;;;0.70;0.50;;;17.10;99.90;;;;;;5029643;28;20187;-75
2021/09/16 01:16:34;;;;;;;1.33;0.60;;;17.00;99.90;;;;;;5020472;28;20211;-76
2021/09/16 01:18:59;;;;;;;0.97;0.60;;;17.10;99.90;;;;;;5028984;28;20204;-76
2021/09/16 01:21:25;;;;;;;1.93;1.10;;;17.00;99.90;;;;;;5035760;28;20942;-76
2021/09/16 01:23:51;;;;;;;1.00;0.67;;;17.00;99.90;;;;;;5035964;28;20258;-76
2021/09/16 01:26:16;;;;;;;3.43;1.00;;;16.90;99.90;;;;;;5035514;28;20179;-76
2021/09/16 01:28:42;;;;;;;0.70;0.60;;;16.90;99.90;;;;;;5035045;28;20172;-76
2021/09/16 01:31:07;;;;;;;0.70;0.50;;;16.90;99.90;;;;;;5034400;28;20688;-75
2021/09/16 01:33:33;;;;;;;0.70;0.50;;;16.90;99.90;;;;;;5035500;28;20585;-75
2021/09/16 01:35:58;;;;;;;0.70;0.60;;;16.90;99.90;;;;;;5035492;28;20649;-75
2021/09/16 01:38:24;;;;;;;0.80;0.60;;;17.00;99.90;;;;;;5035007;28;20206;-75
2021/09/16 01:40:51;;;;;;;0.90;0.70;;;17.00;99.90;;;;;;5034671;28;20265;-75
2021/09/16 01:43:16;;;;;;;0.70;0.60;;;17.00;99.90;;;;;;5035004;28;20561;-75
2021/09/16 01:45:42;;;;;;;0.70;0.50;;;17.00;99.90;;;;;;5034816;28;20406;-75
2021/09/16 01:48:07;;;;;;;0.80;0.80;;;17.00;99.90;;;;;;5021767;28;20180;-75
2021/09/16 01:50:33;;;;;;;0.70;0.50;;;17.00;99.90;;;;;;5031970;28;20286;-75
2021/09/16 01:52:59;;;;;;;1.57;1.40;;;17.00;99.90;;;;;;5035258;28;20179;-75
2021/09/16 01:55:25;;;;;;;1.00;0.70;;;16.90;99.90;;;;;;5034471;28;20437;-75
2021/09/16 01:57:50;;;;;;;0.70;0.50;;;16.90;99.90;;;;;;5039219;28;20222;-75
2021/09/16 02:00:17;;;;;;;1.83;1.37;;;16.90;99.90;;;;;;5035705;28;20689;-75
2021/09/16 02:02:43;;;;;;;0.80;0.70;;;16.90;99.90;;;;;;5034928;28;20216;-75
2021/09/16 02:05:09;;;;;;;0.90;0.60;;;16.90;99.90;;;;;;5031819;28;20422;-76
2021/09/16 02:07:35;;;;;;;0.80;0.70;;;16.80;99.90;;;;;;5021683;28;20429;-75
2021/09/16 02:10:00;;;;;;;0.80;0.57;;;16.80;99.90;;;;;;5033986;28;20449;-75
2021/09/16 02:12:26;;;;;;;0.80;0.60;;;16.80;99.90;;;;;;5033605;28;20182;-75
2021/09/16 02:14:51;;;;;;;1.63;0.97;;;16.80;99.90;;;;;;5033347;28;20252;-75
2021/09/16 02:17:17;;;;;;;0.80;0.60;;;16.70;99.90;;;;;;5035360;28;20237;-76
2021/09/16 02:19:44;;;;;;;0.80;0.60;;;16.70;99.90;;;;;;5020491;28;20180;-75
2021/09/16 02:22:09;;;;;;;0.90;0.67;;;16.70;99.90;;;;;;5022665;28;20857;-75
2021/09/16 02:24:35;;;;;;;0.70;0.50;;;16.70;99.90;;;;;;5017222;28;20415;-76
2021/09/16 02:27:00;;;;;;;0.90;0.80;;;16.60;99.90;;;;;;5033164;28;20178;-75
2021/09/16 02:29:26;;;;;;;0.70;0.50;;;16.60;99.90;;;;;;5020301;28;20187;-75
2021/09/16 02:31:51;;;;;;;0.70;0.60;;;16.60;99.90;;;;;;5027573;28;20210;-76
2021/09/16 02:34:17;;;;;;;1.40;1.23;;;16.60;99.90;;;;;;5026374;28;20180;-75
2021/09/16 02:36:42;;;;;;;0.70;0.60;;;16.50;99.90;;;;;;5034696;28;20175;-75
2021/09/16 02:39:08;;;;;;;1.40;0.70;;;16.50;99.90;;;;;;5034950;28;20665;-75
2021/09/16 02:41:33;;;;;;;0.70;0.50;;;16.40;99.90;;;;;;5034264;28;20188;-76
2021/09/16 02:43:59;;;;;;;0.70;0.60;;;16.40;99.90;;;;;;5033525;28;20255;-75
2021/09/16 02:46:24;;;;;;;1.20;1.10;;;16.40;99.90;;;;;;5033992;28;20635;-76
2021/09/16 02:48:51;;;;;;;0.70;0.50;;;16.30;99.90;;;;;;5034789;28;20380;-75
2021/09/16 02:51:16;;;;;;;0.70;0.60;;;16.30;99.90;;;;;;5034082;28;20192;-75
2021/09/16 02:53:42;;;;;;;0.70;0.60;;;16.20;99.90;;;;;;5034922;28;20414;-75
2021/09/16 02:56:07;;;;;;;0.70;0.50;;;16.20;99.90;;;;;;5034346;28;20185;-75
2021/09/16 02:58:33;;;;;;;0.70;0.60;;;16.20;99.90;;;;;;5035013;28;20265;-75
2021/09/16 03:00:59;;;;;;;0.70;0.50;;;16.10;99.90;;;;;;5034096;28;20215;-75
2021/09/16 03:03:24;;;;;;;0.90;0.70;;;16.10;99.90;;;;;;5031754;28;20184;-75
2021/09/16 03:05:50;;;;;;;1.00;0.80;;;16.10;99.90;;;;;;5026059;28;20172;-75
2021/09/16 03:08:15;;;;;;;0.90;0.70;;;16.10;99.90;;;;;;5026726;28;20175;-75
2021/09/16 03:10:41;;;;;;;0.70;0.50;;;16.10;99.90;;;;;;5028180;28;20211;-76
2021/09/16 03:13:07;;;;;;;0.80;0.70;;;16.10;99.90;;;;;;5030487;28;20207;-75
2021/09/16 03:15:32;;;;;;;4.10;1.07;;;16.00;99.90;;;;;;5022450;28;20210;-75
2021/09/16 03:17:58;;;;;;;0.93;0.80;;;16.00;99.90;;;;;;5031981;28;20214;-76
2021/09/16 03:20:24;;;;;;;1.00;0.80;;;16.10;99.90;;;;;;5028289;28;20206;-76
2021/09/16 03:22:49;;;;;;;0.80;0.60;;;16.00;99.90;;;;;;5030518;28;20229;-76
2021/09/16 03:25:15;;;;;;;1.30;0.60;;;16.10;99.90;;;;;;5031887;28;20245;-76
2021/09/16 03:27:41;;;;;;;5.80;1.07;;;16.10;99.90;;;;;;5035687;28;20242;-76
2021/09/16 03:30:08;;;;;;;1.57;1.47;;;16.00;99.90;;;;;;5032496;28;20214;-75
2021/09/16 03:32:34;;;;;;;1.90;1.60;;;16.00;99.90;;;;;;5023192;28;20180;-76
2021/09/16 03:35:00;;;;;;;0.70;0.60;;;16.00;99.90;;;;;;5031438;28;20430;-75
2021/09/16 03:37:25;;;;;;;0.80;0.60;;;16.00;99.90;;;;;;5029628;28;20183;-76
2021/09/16 03:39:51;;;;;;;1.10;1.00;;;15.90;99.90;;;;;;5023541;28;20226;-75
2021/09/16 03:42:16;;;;;;;1.23;0.80;;;15.90;99.90;;;;;;5033262;28;20904;-75
2021/09/16 03:44:42;;;;;;;2.13;1.10;;;15.80;99.90;;;;;;5029345;28;20525;-76
2021/09/16 03:47:08;;;;;;;1.00;0.90;;;15.80;99.90;;;;;;5034396;28;20657;-76
2021/09/16 03:49:38;;;;;;;1.00;0.90;;;15.80;99.90;;;;;;5034497;28;20179;-75
2021/09/16 03:52:05;;;;;;;0.80;0.70;;;15.80;99.90;;;;;;5034556;28;20429;-75
2021/09/16 03:54:31;;;;;;;0.70;0.60;;;15.70;99.90;;;;;;5035556;28;20422;-76
2021/09/16 03:56:56;;;;;;;0.87;0.80;;;15.70;99.90;;;;;;5028688;28;20495;-75
2021/09/16 03:59:22;;;;;;;0.93;0.83;;;15.70;99.90;;;;;;5025067;28;20684;-75
2021/09/16 04:01:47;;;;;;;4.00;2.60;;;15.70;99.90;;;;;;5034126;28;20203;-75
2021/09/16 04:04:13;;;;;;;1.07;0.97;;;15.70;99.90;;;;;;5029364;28;20186;-75
2021/09/16 04:06:38;;;;;;;0.80;0.70;;;15.70;99.90;;;;;;5031036;28;20179;-75
2021/09/16 04:09:04;;;;;;;0.90;0.70;;;15.70;99.90;;;;;;5033500;28;20254;-76
2021/09/16 04:11:30;;;;;;;2.23;0.73;;;15.70;99.90;;;;;;5031636;28;20262;-76
2021/09/16 04:13:55;;;;;;;0.80;0.60;;;15.80;99.90;;;;;;5024659;28;20239;-75
2021/09/16 04:16:21;;;;;;;2.00;0.90;;;15.80;99.90;;;;;;5034302;28;20656;-75
2021/09/16 04:18:46;;;;;;;0.80;0.80;;;15.80;99.90;;;;;;5027921;28;20198;-76
2021/09/16 04:21:12;;;;;;;1.07;0.83;;;15.70;99.90;;;;;;5034672;28;20599;-75
2021/09/16 04:23:38;;;;;;;0.80;0.67;;;15.70;99.90;;;;;;5033317;28;20195;-76
2021/09/16 04:26:03;;;;;;;1.23;1.13;;;15.70;99.90;;;;;;5030681;28;20176;-76
2021/09/16 04:28:29;;;;;;;2.00;1.90;;;15.70;99.90;;;;;;5029025;28;20172;-76
2021/09/16 04:30:54;;;;;;;0.80;0.60;;;15.70;99.90;;;;;;5033792;28;20438;-76
2021/09/16 04:33:20;;;;;;;2.40;1.43;;;15.70;99.90;;;;;;5026166;28;20180;-76
2021/09/16 04:35:46;;;;;;;0.93;0.83;;;15.80;99.90;;;;;;5028930;28;20175;-75
2021/09/16 04:38:14;;;;;;;2.73;0.87;;;15.80;99.90;;;;;;5034829;28;20294;-75
2021/09/16 04:40:39;;;;;;;1.93;1.00;;;15.70;99.90;;;;;;5032723;28;20987;-76
2021/09/16 04:43:05;;;;;;;0.80;0.70;;;15.80;99.90;;;;;;5029886;28;20573;-76
2021/09/16 04:45:30;;;;;;;0.80;0.67;;;15.70;99.90;;;;;;5030515;28;20183;-75
2021/09/16 04:47:56;;;;;;;1.50;0.93;;;15.80;99.90;;;;;;5034742;28;20178;-75
2021/09/16 04:50:21;;;;;;;0.90;0.67;;;15.80;99.90;;;;;;5033237;28;20716;-75
2021/09/16 04:52:47;;;;;;;1.07;0.97;;;15.70;99.90;;;;;;5033933;28;20170;-75
2021/09/16 04:55:13;;;;;;;2.67;0.90;;;15.70;99.90;;;;;;5031216;28;20266;-76
2021/09/16 04:57:39;;;;;;;3.90;1.37;;;15.70;99.90;;;;;;5031663;28;20199;-76
2021/09/16 05:00:06;;;;;;;1.43;1.33;;;15.60;99.90;;;;;;5030004;28;20183;-76
2021/09/16 05:02:31;;;;;;;0.90;0.70;;;15.60;99.90;;;;;;5032329;28;20454;-76
2021/09/16 05:04:57;;;;;;;0.70;0.60;;;15.60;99.90;;;;;;5019605;28;20458;-76
2021/09/16 05:07:22;;;;;;;0.97;0.77;;;15.60;99.90;;;;;;5030676;28;20655;-75
2021/09/16 05:09:48;;;;;;;1.17;1.07;;;15.60;99.90;;;;;;5032038;28;20207;-76
2021/09/16 05:12:13;;;;;;;1.00;0.80;;;15.50;99.90;;;;;;5017955;28;20585;-75
2021/09/16 05:14:39;;;;;;;1.00;0.90;;;15.40;99.90;;;;;;5027980;28;20241;-75
2021/09/16 05:17:04;;;;;;;12.47;1.23;;;15.40;99.90;;;;;;5025872;28;20178;-74
2021/09/16 05:19:30;;;;;;;1.10;1.00;;;15.50;99.90;;;;;;5030770;28;20673;-75
2021/09/16 05:21:56;;;;;;;0.90;0.70;;;15.50;99.90;;;;;;5029534;28;20508;-75
2021/09/16 05:24:21;;;;;;;0.70;0.60;;;15.50;99.90;;;;;;5024801;28;20176;-75
2021/09/16 05:26:48;;;;;;;0.80;0.70;;;15.40;99.90;;;;;;5033256;28;20184;-75
2021/09/16 05:29:13;;;;;;;1.83;0.77;;;15.40;99.90;;;;;;5030413;28;20228;-76
2021/09/16 05:31:39;;;;;;;0.70;0.50;;;15.40;99.90;;;;;;5030976;28;20481;-76
2021/09/16 05:34:05;;;;;;;1.00;0.80;;;15.50;99.90;;;;;;5030828;28;20178;-76
2021/09/16 05:36:31;;;;;;;1.57;1.47;;;15.40;99.90;;;;;;5027227;28;20439;-76
2021/09/16 05:38:57;;;;;;;1.47;1.10;;;15.40;99.90;;;;;;5031997;28;20462;-76
2021/09/16 05:41:23;;;;;;;1.23;0.70;;;15.50;99.90;;;;;;5032088;28;20450;-75
2021/09/16 05:43:49;;;;;;;1.33;1.23;;;15.40;99.90;;;;;;5032004;28;20211;-75
2021/09/16 05:46:15;;;;;;;4.93;0.87;;;15.50;99.90;;;;;;5027327;28;20469;-74
2021/09/16 05:48:40;;;;;;;3.63;3.33;;;15.50;99.90;;;;;;5021900;28;20454;-75
2021/09/16 05:51:06;;;;;;;0.70;0.50;;;15.40;99.90;;;;;;5031491;28;20207;-75
2021/09/16 05:53:31;;;;;;;1.17;1.07;;;15.60;99.90;;;;;;5033126;28;20243;-75
2021/09/16 05:55:57;;;;;;;2.70;2.50;;;15.60;99.90;;;;;;5025863;28;20271;-75
2021/09/16 05:58:23;;;;;;;0.70;0.60;;;15.80;99.90;;;;;;5028574;28;20204;-75
2021/09/16 06:00:48;;;;;;;1.67;1.20;;;15.90;99.90;;;;;;5022479;28;20731;-75
2021/09/16 06:03:14;;;;;;;2.43;2.33;;;16.00;99.90;;;;;;5017885;28;20699;-75
2021/09/16 06:05:39;;;;;;;1.43;1.33;;;16.10;99.90;;;;;;5021561;28;20533;-76
2021/09/16 06:08:05;;;;;;;0.93;0.83;;;16.20;99.90;;;;;;5031141;28;20181;-76
2021/09/16 06:10:31;;;;;;;0.70;0.60;;;16.30;99.90;;;;;;5028232;28;20294;-76
2021/09/16 06:12:56;;;;;;;1.53;1.43;;;16.50;99.90;;;;;;5032463;28;20673;-76
2021/09/16 06:15:22;;;;;;;0.73;0.63;;;16.50;99.90;;;;;;5025717;28;20607;-75
2021/09/16 06:17:47;;;;;;;0.90;0.67;;;16.70;99.90;;;;;;5021326;28;20217;-75
2021/09/16 06:20:13;;;;;;;0.70;0.50;;;16.80;99.90;;;;;;5031253;28;20286;-75
2021/09/16 06:22:38;;;;;;;0.73;0.67;;;16.80;99.90;;;;;;5030752;28;20251;-76
2021/09/16 06:25:06;;;;;;;0.97;0.60;;;16.90;99.90;;;;;;5028831;28;20645;-76
2021/09/16 06:27:31;;;;;;;0.80;0.60;;;16.80;99.90;;;;;;5029191;28;20548;-76
2021/09/16 06:29:57;;;;;;;0.70;0.60;;;16.80;99.90;;;;;;5017322;28;20446;-76
2021/09/16 06:32:22;;;;;;;0.80;0.70;;;16.90;99.90;;;;;;5030433;28;20191;-76
2021/09/16 06:34:48;;;;;;;0.70;0.60;;;17.00;99.90;;;;;;5029516;28;20168;-75
2021/09/16 06:37:13;;;;;;;1.20;0.97;;;17.00;99.90;;;;;;5030938;28;20181;-75
2021/09/16 06:39:39;;;;;;;0.70;0.50;;;17.10;99.90;;;;;;5030669;28;20203;-76
2021/09/16 06:42:05;;;;;;;0.70;0.50;;;17.10;99.90;;;;;;5029115;28;20168;-76
2021/09/16 06:44:30;;;;;;;0.80;0.70;;;17.20;99.90;;;;;;5028263;28;20180;-76
2021/09/16 06:46:56;;;;;;;3.53;1.13;;;17.30;99.90;;;;;;5031486;28;20183;-76
2021/09/16 06:49:22;;;;;;;2.30;2.20;;;17.30;99.90;;;;;;5030480;28;20436;-76
2021/09/16 06:51:48;;;;;;;1.53;1.43;;;17.30;99.90;;;;;;5026568;28;20191;-76
2021/09/16 06:54:13;;;;;;;0.70;0.60;;;17.20;99.90;;;;;;5029796;28;20434;-75
2021/09/16 06:56:39;;;;;;;2.77;1.33;;;17.20;99.90;;;;;;5033187;28;20210;-75
2021/09/16 06:59:04;;;;;;;0.70;0.60;;;17.20;99.90;;;;;;5031594;28;20199;-75
2021/09/16 07:01:32;;;;;;;0.70;0.60;;;17.10;99.90;;;;;;5023903;28;20200;-75
2021/09/16 07:03:57;;;;;;;1.30;1.20;;;17.20;99.90;;;;;;5020760;28;20183;-75
2021/09/16 07:06:24;;;;;;;0.73;0.60;;;17.20;99.90;;;;;;5015904;28;20430;-76
2021/09/16 07:08:51;;;;;;;1.77;0.70;;;17.20;99.90;;;;;;5031288;28;20202;-76
2021/09/16 07:11:17;;;;;;;0.80;0.60;;;17.20;99.90;;;;;;5030281;28;20473;-75
2021/09/16 07:13:43;;;;;;;1.10;0.80;;;17.30;99.90;;;;;;5029024;28;20450;-75
2021/09/16 07:16:08;;;;;;;1.17;1.07;;;17.50;99.90;;;;;;5032481;28;20418;-75
2021/09/16 07:18:34;;;;;;;0.80;0.70;;;17.70;99.90;;;;;;5030713;28;20703;-76
2021/09/16 07:21:00;;;;;;;1.93;1.43;;;17.80;99.90;;;;;;5032288;28;20199;-75
2021/09/16 07:23:26;;;;;;;1.00;0.90;;;18.00;99.90;;;;;;5027825;28;20180;-76
2021/09/16 07:25:51;;;;;;;2.30;1.43;;;18.00;99.90;;;;;;5024610;28;20950;-76
2021/09/16 07:28:17;;;;;;;0.83;0.77;;;18.20;99.90;;;;;;5017616;28;20553;-76
2021/09/16 07:30:42;;;;;;;0.70;0.60;;;18.30;99.90;;;;;;5020761;28;20239;-76
2021/09/16 07:33:08;;;;;;;0.70;0.60;;;18.40;99.90;;;;;;5030324;28;20207;-75
2021/09/16 07:35:34;;;;;;;1.00;0.90;;;18.30;99.90;;;;;;5025393;28;20214;-76
2021/09/16 07:38:00;;;;;;;1.00;0.70;;;18.40;99.90;;;;;;5028505;28;20199;-76
2021/09/16 07:40:25;;;;;;;2.03;1.33;;;18.50;99.90;;;;;;5029927;28;20223;-77
2021/09/16 07:42:51;;;;;;;4.37;0.90;;;18.50;99.90;;;;;;5024042;28;20465;-76
2021/09/16 07:45:16;;;;;;;1.33;1.20;;;18.50;99.90;;;;;;5028737;28;20563;-77
2021/09/16 07:47:42;;;;;;;2.93;0.70;;;18.60;99.90;;;;;;5031511;28;20176;-76
2021/09/16 07:50:08;;;;;;;1.10;0.97;;;18.50;99.90;;;;;;5021139;28;20210;-76
2021/09/16 07:52:34;;;;;;;1.27;0.77;;;18.60;99.90;;;;;;5025167;28;20245;-77
2021/09/16 07:54:59;;;;;;;1.97;1.20;;;18.70;99.90;;;;;;5021846;28;20438;-77
2021/09/16 07:57:25;;;;;;;2.20;2.00;;;18.80;99.90;;;;;;5030134;28;20195;-77
2021/09/16 07:59:50;;;;;;;1.87;1.00;;;18.90;99.90;;;;;;5029812;28;20199;-76
2021/09/16 08:02:17;;;;;;;0.80;0.70;;;19.10;99.90;;;;;;5030276;28;20195;-77
2021/09/16 08:04:43;;;;;;;1.20;1.10;;;19.20;99.90;;;;;;5018076;28;20656;-77
2021/09/16 08:07:09;;;;;;;1.37;1.13;;;19.30;99.90;;;;;;5033710;28;20527;-77
2021/09/16 08:09:34;;;;;;;2.77;1.00;;;19.50;99.90;;;;;;5030866;28;20184;-77
2021/09/16 08:12:00;;;;;;;1.30;0.83;;;19.60;99.90;;;;;;5030056;28;20243;-76
2021/09/16 08:14:25;;;;;;;0.77;0.70;;;19.70;99.90;;;;;;5026759;28;20194;-76
2021/09/16 08:16:51;;;;;;;1.20;1.00;;;19.90;99.90;;;;;;5027505;28;20273;-76
2021/09/16 08:19:17;;;;;;;0.93;0.83;;;19.80;99.90;;;;;;5028467;28;20199;-76
2021/09/16 08:21:42;;;;;;;1.40;0.97;;;19.70;99.90;;;;;;5026163;28;20206;-76
2021/09/16 08:24:08;;;;;;;0.90;0.70;;;19.60;99.90;;;;;;5030057;28;20655;-76
2021/09/16 08:26:33;;;;;;;1.00;0.90;;;19.50;99.90;;;;;;5021854;28;20242;-76
2021/09/16 08:28:59;;;;;;;0.80;0.70;;;19.60;99.90;;;;;;5017233;28;20241;-75
2021/09/16 08:31:25;;;;;;;0.90;0.80;;;19.60;99.90;;;;;;5033826;28;20211;-76
2021/09/16 08:33:50;;;;;;;0.80;0.80;;;19.70;99.90;;;;;;5033465;28;20194;-77
2021/09/16 08:36:16;;;;;;;1.20;0.83;;;19.80;99.90;;;;;;5032721;28;20551;-76
2021/09/16 08:38:41;;;;;;;1.90;1.73;;;19.80;99.90;;;;;;5029734;28;20199;-76
2021/09/16 08:41:07;;;;;;;2.80;2.60;;;19.60;99.90;;;;;;5025614;28;20262;-77
2021/09/16 08:43:35;;;;;;;1.37;1.27;;;19.70;99.90;;;;;;5032006;28;20176;-76
2021/09/16 08:46:03;;;;;;;1.23;1.13;;;19.60;99.90;;;;;;5023277;28;20545;-77
2021/09/16 08:48:29;;;;;;;0.80;0.70;;;19.60;99.90;;;;;;5034510;28;20411;-77
2021/09/16 08:50:54;;;;;;;1.80;1.70;;;19.80;99.90;;;;;;5026125;28;21023;-77
2021/09/16 08:53:26;;;;;;;1.30;1.20;;;20.00;99.90;;;;;;5030405;28;20187;-76
2021/09/16 08:55:53;;;;;;;1.93;1.17;;;20.30;99.90;;;;;;5033506;28;20682;-76
2021/09/16 08:58:22;;;;;;;5.20;3.33;;;20.50;99.90;;;;;;5033920;28;20457;-76
2021/09/16 09:00:48;;;;;;;0.90;0.60;;;20.70;99.90;;;;;;5034408;28;20453;-77
2021/09/16 09:03:14;;;;;;;1.00;0.83;;;20.80;99.90;;;;;;5034509;28;20442;-77
2021/09/16 09:05:43;;;;;;;0.90;0.80;;;21.00;99.90;;;;;;5032445;28;20175;-77
2021/09/16 09:08:09;;;;;;;0.80;0.80;;;21.40;99.90;;;;;;5033140;28;20196;-77
2021/09/16 09:10:42;;;;;;;1.10;1.00;;;21.90;99.90;;;;;;5034610;28;20803;-77
2021/09/16 09:13:10;;;;;;;0.80;0.70;;;22.80;99.90;;;;;;5029431;28;20919;-77
2021/09/16 09:15:38;;;;;;;0.90;0.70;;;23.70;99.90;;;;;;5033627;28;20513;-78
2021/09/16 09:18:11;;;;;;;0.80;0.60;;;24.40;99.90;;;;;;5032315;28;20850;-78
2021/09/16 09:20:55;;;;;;;0.90;0.80;;;24.70;99.90;;;;;;5029866;28;20453;-77
2021/09/16 09:23:24;;;;;;;1.20;1.00;;;25.40;99.90;;;;;;5026286;28;20803;-78
2021/09/16 09:25:50;;;;;;;1.17;0.70;;;26.00;99.90;;;;;;5032477;28;20480;-78
2021/09/16 09:28:30;;;;;;;0.97;0.87;;;26.40;99.90;;;;;;5032022;28;20439;-78
2021/09/16 09:30:57;;;;;;;1.10;1.00;;;26.90;99.90;;;;;;5024198;28;20210;-78
2021/09/16 09:33:27;;;;;;;1.20;0.90;;;27.60;99.90;;;;;;5023867;28;20437;-78
2021/09/16 09:35:53;;;;;;;1.00;0.80;;;27.70;99.90;;;;;;5029078;28;20863;-78
2021/09/16 09:38:21;;;;;;;1.57;0.80;;;28.10;99.90;;;;;;5023086;28;20470;-76
2021/09/16 09:40:55;;;;;;;0.97;0.77;;;28.50;99.90;;;;;;5022001;28;20817;-75
2021/09/16 09:43:21;;;;;;;1.20;0.90;;;28.60;99.90;;;;;;5023903;28;20430;-75
2021/09/16 09:46:01;;;;;;;0.90;0.80;;;28.70;99.90;;;;;;5022319;28;20480;-76
2021/09/16 09:48:27;;;;;;;1.10;0.70;;;29.10;99.90;;;;;;5023560;28;20708;-75
2021/09/16 09:50:53;;;;;;;0.90;0.73;;;28.90;99.90;;;;;;5024137;28;20458;-75
2021/09/16 09:53:19;;;;;;;2.10;1.63;;;29.10;99.40;;;;;;5022049;28;20176;-76
2021/09/16 09:55:45;;;;;;;3.67;1.20;;;29.20;96.60;;;;;;5025346;28;20438;-75
2021/09/16 09:58:11;;;;;;;1.20;1.10;;;29.50;96.50;;;;;;5021845;28;20562;-75
2021/09/16 10:00:37;;;;;;;1.47;1.10;;;29.80;96.50;;;;;;5023293;28;20277;-76
2021/09/16 10:03:04;;;;;;;1.40;1.07;;;30.10;94.90;;;;;;5021968;28;20998;-75
2021/09/16 10:05:35;;;;;;;1.30;1.20;;;30.40;93.10;;;;;;5042172;28;20176;-75
2021/09/16 10:08:10;;;;;;;2.37;1.33;;;30.20;93.70;;;;;;5023206;28;20423;-75
2021/09/16 10:10:41;;;;;;;3.33;1.60;;;30.30;92.70;;;;;;5023285;28;20449;-75
2021/09/16 10:13:09;;;;;;;0.90;0.67;;;30.30;93.10;;;;;;5019154;28;20423;-74
2021/09/16 10:15:34;;;;;;;1.00;0.80;;;30.40;91.60;;;;;;5024085;28;20939;-75
2021/09/16 10:18:00;;;;;;;1.10;0.80;;;30.70;91.70;;;;;;5021708;28;20475;-76
2021/09/16 10:20:28;;;;;;;1.20;1.10;;;30.90;90.10;;;;;;5022089;28;20218;-75
2021/09/16 10:22:57;;;;;;;1.20;1.07;;;29.90;87.90;;;;;;5024596;28;20230;-75
2021/09/16 10:25:25;;;;;;;1.87;0.90;;;29.40;88.40;;;;;;5023280;28;20445;-76
2021/09/16 10:28:01;;;;;;;0.90;0.80;;;29.20;91.20;;;;;;5021967;28;20442;-75
2021/09/16 10:30:26;;;;;;;1.73;1.30;;;29.20;90.80;;;;;;5018937;28;20814;-75
2021/09/16 10:33:08;;;;;;;0.90;0.80;;;29.20;90.90;;;;;;5021248;28;20434;-75
2021/09/16 10:35:37;;;;;;;0.93;0.80;;;29.10;91.80;;;;;;5021062;28;20584;-75
2021/09/16 10:38:26;;;;;;;1.00;0.90;;;29.30;92.20;;;;;;5024523;28;20496;-75
2021/09/16 10:41:16;;;;;;;1.80;0.77;;;29.20;91.00;;;;;;5022169;28;20450;-78
2021/09/16 10:43:44;;;;;;;0.90;0.80;;;29.30;90.50;;;;;;5024714;28;20469;-75
2021/09/16 10:46:29;;;;;;;0.90;0.73;;;28.20;89.80;;;;;;5022086;28;20429;-75
2021/09/16 10:48:57;;;;;;;1.33;1.00;;;27.60;90.80;;;;;;5019837;28;20434;-75
2021/09/16 10:51:41;;;;;;;1.27;0.77;;;26.80;93.00;;;;;;5019288;28;20459;-74
2021/09/16 10:54:26;;;;;;;1.67;1.27;;;26.30;95.80;;;;;;5023307;28;20495;-75
2021/09/16 10:57:12;;;;;;;1.20;1.00;;;25.90;97.40;;;;;;5021419;28;20439;-75
2021/09/16 10:59:53;;;;;;;0.90;0.70;;;25.60;98.70;;;;;;5023329;28;20450;-75
2021/09/16 11:02:25;;;;;;;1.57;1.00;;;25.40;99.90;;;;;;5024386;28;20915;-76
2021/09/16 11:04:56;;;;;;;0.90;0.73;;;25.90;99.90;;;;;;5021602;28;20521;-75
2021/09/16 11:07:37;;;;;;;2.37;0.90;;;26.50;99.90;;;;;;5022461;28;21765;-75
2021/09/16 11:10:15;;;;;;;0.90;0.70;;;27.20;99.90;;;;;;5024034;28;20533;-75
2021/09/16 11:12:48;;;;;;;0.80;0.60;;;27.40;99.90;;;;;;5021161;28;20429;-75
2021/09/16 11:15:28;;;;;;;0.80;0.60;;;27.20;99.60;;;;;;5022362;28;20430;-74
2021/09/16 11:18:05;;;;;;;2.80;1.53;;;27.20;99.90;;;;;;5025094;28;20457;-75
2021/09/16 11:20:32;;;;;;;0.87;0.70;;;27.60;99.90;;;;;;5020895;28;20446;-76
2021/09/16 11:22:57;;;;;;;0.80;0.60;;;28.50;99.90;;;;;;5022457;28;20507;-75
2021/09/16 11:25:25;;;;;;;0.80;0.60;;;29.20;98.20;;;;;;5024053;28;20840;-75
2021/09/16 11:27:54;;;;;;;2.77;0.97;;;29.50;94.40;;;;;;5021515;28;20183;-75
2021/09/16 11:30:21;;;;;;;1.20;0.90;;;29.80;93.70;;;;;;5020458;28;20503;-76
2021/09/16 11:32:47;;;;;;;1.10;0.80;;;29.70;92.80;;;;;;5022518;28;20434;-75
2021/09/16 11:35:15;;;;;;;0.90;0.67;;;29.60;93.90;;;;;;5023049;28;21082;-76
2021/09/16 11:37:52;;;;;;;1.10;0.90;;;29.90;93.70;;;;;;5022841;28;20554;-76
2021/09/16 11:40:45;;;;;;;0.80;0.60;;;30.00;92.70;;;;;;5023817;28;20438;-76
2021/09/16 11:43:13;;;;;;;0.90;0.70;;;29.90;88.30;;;;;;5023087;28;20512;-76
2021/09/16 11:45:47;;;;;;;1.00;0.80;;;29.30;90.80;;;;;;5026733;28;20429;-76
2021/09/16 11:48:18;;;;;;;0.90;0.70;;;28.50;90.40;;;;;;5035723;28;20430;-76
2021/09/16 11:50:49;;;;;;;1.37;0.80;;;28.00;92.20;;;;;;5023902;28;20456;-76
2021/09/16 11:53:23;;;;;;;1.00;0.87;;;28.20;97.30;;;;;;5034107;28;20564;-76
2021/09/16 11:55:54;;;;;;;1.10;0.83;;;28.70;94.70;;;;;;5032477;28;20434;-76
2021/09/16 11:58:37;;;;;;;0.93;0.80;;;29.10;95.50;;;;;;5017270;28;20551;-76
2021/09/16 12:01:08;;;;;;;0.80;0.63;;;29.50;92.90;;;;;;5021090;28;20609;-76
2021/09/16 12:03:36;;;;;;;0.90;0.70;;;29.70;91.60;;;;;;5033688;28;20425;-76
2021/09/16 12:06:03;;;;;;;0.80;0.60;;;29.90;92.00;;;;;;5035489;28;20780;-76
2021/09/16 12:08:52;;;;;;;0.90;0.70;;;30.20;88.10;;;;;;5034512;28;20429;-76
2021/09/16 12:11:26;;;;;;;2.33;2.17;;;29.90;89.70;;;;;;5026586;28;20451;-76
2021/09/16 12:13:56;;;;;;;0.90;0.67;;;30.50;90.80;;;;;;5024977;28;20436;-76
2021/09/16 12:16:24;;;;;;;1.03;0.90;;;31.00;87.10;;;;;;5020877;28;20521;-76
2021/09/16 12:18:53;;;;;;;1.50;1.37;;;31.30;87.50;;;;;;5034213;28;20468;-76
2021/09/16 12:21:22;;;;;;;0.80;0.70;;;31.00;82.60;;;;;;5031306;28;20453;-76
2021/09/16 12:23:51;;;;;;;1.00;0.83;;;30.30;82.90;;;;;;5033142;28;20441;-76
2021/09/16 12:26:19;;;;;;;1.00;0.77;;;29.80;83.20;;;;;;5036377;28;20437;-75
2021/09/16 12:29:05;;;;;;;0.90;0.80;;;29.30;86.30;;;;;;5034611;28;20429;-75
2021/09/16 12:31:34;;;;;;;0.90;0.73;;;28.50;87.60;;;;;;5027121;28;20450;-76
2021/09/16 12:34:05;;;;;;;1.00;0.80;;;28.10;90.60;;;;;;5030879;28;20517;-75
2021/09/16 12:36:31;;;;;;;1.30;0.93;;;27.70;91.50;;;;;;5027575;28;20435;-76
2021/09/16 12:39:06;;;;;;;1.00;0.80;;;27.40;92.40;;;;;;5028566;28;20520;-75
2021/09/16 12:41:36;;;;;;;1.47;1.37;;;27.10;93.00;;;;;;5028657;28;20452;-75
2021/09/16 12:44:08;;;;;;;0.80;0.60;;;26.80;93.00;;;;;;5028911;28;20422;-75
2021/09/16 12:46:56;;;;;;;0.80;0.67;;;26.60;93.70;;;;;;5022688;28;21198;-75
2021/09/16 12:49:30;;;;;;;2.07;0.80;;;26.20;94.40;;;;;;5034171;28;20665;-75